Time;durP1;ratioP1;P1;durP2;ratioP2;P2;SDS_P1;SDS_P2;PMS_P1;PMS_P2;Temp;Humidity;BMP_temperature;BMP_pressure;BME280_temperature;BME280_humidity;BME280_pressure;Samples;Min_cycle;Max_cycle;Signal;HPM_P1;HPM_P2
2021/07/01 00:02:21;;;;;;;74.30;70.43;;;;;;;23.70;70.88;93120.66;5089723;28;20108;-58
2021/07/01 00:04:46;;;;;;;78.35;74.20;;;;;;;23.61;71.39;93126.59;5089539;28;20047;-59
2021/07/01 00:07:12;;;;;;;83.28;78.90;;;;;;;23.60;71.15;93128.69;5089266;28;20012;-58
2021/07/01 00:09:37;;;;;;;82.00;77.55;;;;;;;23.54;71.13;93130.56;5089626;28;20031;-58
2021/07/01 00:12:03;;;;;;;78.57;74.35;;;;;;;23.62;71.20;93136.50;5102213;28;20023;-57
2021/07/01 00:14:28;;;;;;;71.68;67.57;;;;;;;23.65;70.79;93119.03;5107765;28;20148;-58
2021/07/01 00:16:55;;;;;;;67.90;64.13;;;;;;;23.64;70.38;93123.22;5105532;28;20031;-58
2021/07/01 00:19:22;;;;;;;67.82;64.03;;;;;;;23.63;70.80;93133.03;5109728;28;20027;-58
2021/07/01 00:21:47;;;;;;;67.20;63.03;;;;;;;23.63;70.60;93121.75;5109495;28;20115;-58
2021/07/01 00:24:13;;;;;;;65.00;61.05;;;;;;;23.61;70.93;93129.41;5109536;28;20060;-58
2021/07/01 00:26:38;;;;;;;72.15;68.05;;;;;;;23.55;71.22;93129.91;5107521;28;20536;-59
2021/07/01 00:29:04;;;;;;;78.53;74.07;;;;;;;23.46;71.40;93128.09;5089849;28;20020;-59
2021/07/01 00:31:31;;;;;;;86.07;81.57;;;;;;;23.40;71.62;93127.13;5088310;28;20027;-57
2021/07/01 00:33:57;;;;;;;85.75;81.18;;;;;;;23.32;71.69;93121.88;5089708;28;20024;-57
2021/07/01 00:36:22;;;;;;;89.03;84.45;;;;;;;23.35;71.46;93121.34;5089621;28;20019;-58
2021/07/01 00:38:50;;;;;;;95.63;90.75;;;;;;;23.34;72.07;93131.16;5089561;28;20408;-57
2021/07/01 00:41:15;;;;;;;94.28;89.13;;;;;;;23.24;72.41;93121.53;5097647;28;20028;-60
2021/07/01 00:43:41;;;;;;;92.05;86.88;;;;;;;23.16;72.40;93113.47;5109871;28;20027;-59
2021/07/01 00:46:09;;;;;;;89.15;84.20;;;;;;;23.14;73.02;93124.66;5109997;28;20412;-56
2021/07/01 00:48:35;;;;;;;89.68;84.30;;;;;;;23.12;72.87;93127.38;5105312;28;20419;-56
2021/07/01 00:51:02;;;;;;;91.63;86.70;;;;;;;23.06;72.90;93129.94;5089830;28;20035;-56
2021/07/01 00:53:27;;;;;;;239.88;221.43;;;;;;;23.02;73.20;93129.03;5089423;28;20044;-59
2021/07/01 00:55:53;;;;;;;90.40;85.38;;;;;;;23.12;73.09;93132.28;5089638;28;20099;-59
2021/07/01 00:58:19;;;;;;;95.55;90.65;;;;;;;23.15;72.79;93140.16;5088979;28;20024;-59
2021/07/01 01:03:16;;;;;;;89.55;84.57;;;;;;;23.19;71.99;93143.19;5093621;28;20024;-60
2021/07/01 01:05:41;;;;;;;83.60;79.13;;;;;;;23.22;71.48;93139.06;5093743;28;20054;-60
2021/07/01 01:08:07;;;;;;;91.95;86.50;;;;;;;23.10;71.84;93138.56;5093425;28;20024;-59
2021/07/01 01:10:32;;;;;;;87.05;82.53;;;;;;;23.15;71.56;93145.81;5093739;28;20027;-59
2021/07/01 01:12:58;;;;;;;92.68;87.78;;;;;;;23.04;71.88;93141.09;5113763;28;20026;-59
2021/07/01 01:15:26;;;;;;;89.20;84.20;;;;;;;23.06;71.83;93152.47;5114077;27;20019;-58
2021/07/01 01:17:51;;;;;;;388.48;348.67;;;;;;;22.97;72.20;93147.84;5114109;28;20020;-58
2021/07/01 01:20:17;;;;;;;93.10;87.78;;;;;;;23.01;71.96;93144.47;5113936;28;20514;-58
2021/07/01 01:22:42;;;;;;;93.93;88.85;;;;;;;22.82;71.97;93119.72;5113885;28;20439;-58
2021/07/01 01:25:08;;;;;;;93.82;88.90;;;;;;;22.84;72.06;93139.50;5113432;28;20049;-58
2021/07/01 01:27:34;;;;;;;98.88;93.60;;;;;;;22.82;72.20;93140.16;5113365;28;20020;-58
2021/07/01 01:29:59;;;;;;;171.25;159.07;;;;;;;22.83;72.04;93143.66;5113843;28;20031;-58
2021/07/01 01:32:25;;;;;;;94.53;89.65;;;;;;;22.77;72.08;93146.22;5113356;28;20027;-58
2021/07/01 01:34:50;;;;;;;101.47;96.07;;;;;;;22.68;72.62;93145.16;5112703;28;20015;-58
2021/07/01 01:37:16;;;;;;;101.78;96.13;;;;;;;22.59;73.08;93146.13;5113573;28;20027;-57
2021/07/01 01:39:51;;;;;;;98.82;93.38;;;;;;;22.54;73.01;93141.69;5113525;28;20027;-58
2021/07/01 01:42:17;;;;;;;95.78;90.97;;;;;;;22.52;73.81;93141.59;5113516;28;20416;-57
2021/07/01 01:44:42;;;;;;;95.30;90.20;;;;;;;22.52;73.83;93142.31;5112922;28;20035;-58
2021/07/01 01:47:19;;;;;;;100.18;94.95;;;;;;;22.45;73.25;93143.41;5113440;28;20024;-58
2021/07/01 01:49:49;;;;;;;104.47;99.07;;;;;;;22.50;72.44;93149.94;5102433;27;20513;-58
2021/07/01 01:52:15;;;;;;;101.55;96.45;;;;;;;22.44;72.25;93150.38;5106047;28;20102;-53
2021/07/01 01:54:40;;;;;;;103.63;98.43;;;;;;;22.35;72.72;93154.19;5112854;27;20139;-52
2021/07/01 01:57:06;;;;;;;103.75;97.82;;;;;;;22.32;72.82;93152.66;5113150;28;20031;-55
2021/07/01 01:59:32;;;;;;;102.47;97.43;;;;;;;22.32;72.77;93163.91;5113229;28;20051;-56
2021/07/01 02:01:57;;;;;;;101.90;96.32;;;;;;;22.36;72.98;93158.47;5113061;28;20531;-56
2021/07/01 02:04:23;;;;;;;105.15;99.85;;;;;;;22.29;72.56;93150.38;5112862;28;20613;-56
2021/07/01 02:06:49;;;;;;;103.22;97.80;;;;;;;22.16;73.02;93132.22;5113082;27;20030;-57
2021/07/01 02:09:14;;;;;;;103.40;97.72;;;;;;;22.25;72.11;93150.91;5112901;28;20039;-56
2021/07/01 02:11:39;;;;;;;106.57;101.15;;;;;;;22.19;71.76;93147.09;5111895;28;20054;-57
2021/07/01 02:14:05;;;;;;;107.93;102.47;;;;;;;22.08;72.29;93140.28;5112949;28;20015;-58
2021/07/01 02:16:30;;;;;;;110.47;104.93;;;;;;;22.00;72.79;93153.97;5112977;28;20019;-58
2021/07/01 02:18:56;;;;;;;109.20;103.40;;;;;;;21.97;72.95;93151.69;5112636;28;20036;-58
2021/07/01 02:21:23;;;;;;;111.68;106.07;;;;;;;21.88;72.19;93156.19;5112522;28;20038;-58
2021/07/01 02:23:48;;;;;;;109.72;104.22;;;;;;;21.87;71.70;93155.47;5112440;28;20571;-55
2021/07/01 02:26:14;;;;;;;114.30;108.30;;;;;;;21.86;72.12;93147.66;5112731;28;20141;-55
2021/07/01 02:28:40;;;;;;;111.65;106.30;;;;;;;21.79;72.12;93152.25;5112380;28;20393;-55
2021/07/01 02:31:05;;;;;;;108.43;102.85;;;;;;;21.56;72.58;93144.09;5112240;28;20031;-56
2021/07/01 02:33:31;;;;;;;110.70;105.00;;;;;;;21.73;72.23;93163.19;5112268;28;20054;-58
2021/07/01 02:35:56;;;;;;;110.35;105.05;;;;;;;21.74;71.85;93163.94;5112209;28;20031;-57
2021/07/01 02:38:21;;;;;;;111.32;105.68;;;;;;;21.71;71.80;93159.56;5111753;28;20031;-56
2021/07/01 02:40:47;;;;;;;107.40;101.90;;;;;;;21.63;71.58;93171.16;5110432;28;20023;-57
2021/07/01 02:43:12;;;;;;;105.57;100.15;;;;;;;21.63;71.67;93170.41;5091456;28;20504;-57
2021/07/01 02:45:38;;;;;;;113.68;108.05;;;;;;;21.52;72.08;93168.47;5091870;28;20063;-57
2021/07/01 02:48:04;;;;;;;111.88;106.38;;;;;;;21.53;72.29;93169.91;5091876;28;20028;-62
2021/07/01 02:50:30;;;;;;;113.93;107.95;;;;;;;21.50;72.46;93163.47;5091493;28;20035;-61
2021/07/01 02:52:55;;;;;;;113.85;108.35;;;;;;;21.52;72.31;93169.19;5110135;28;20047;-61
2021/07/01 02:55:22;;;;;;;114.03;108.45;;;;;;;21.43;72.04;93163.78;5112099;28;20019;-60
2021/07/01 02:57:47;;;;;;;113.00;107.30;;;;;;;21.47;72.47;93175.97;5111682;28;20527;-60
2021/07/01 03:00:16;;;;;;;114.40;108.80;;;;;;;21.50;71.89;93171.19;5111852;28;20027;-60
2021/07/01 03:02:42;;;;;;;112.33;106.50;;;;;;;21.43;71.83;93175.03;5111687;28;20019;-60
2021/07/01 03:05:07;;;;;;;109.95;104.55;;;;;;;21.37;71.94;93177.53;5111349;28;20019;-60
2021/07/01 03:07:33;;;;;;;116.13;110.53;;;;;;;21.33;71.68;93192.09;5111876;28;20106;-60
2021/07/01 03:09:59;;;;;;;114.03;108.32;;;;;;;21.32;72.12;93198.34;5112007;28;20031;-60
2021/07/01 03:12:24;;;;;;;225.95;205.38;;;;;;;21.33;72.33;93202.63;5111592;28;20023;-60
2021/07/01 03:14:50;;;;;;;115.65;109.18;;;;;;;21.18;72.63;93192.72;5111522;28;20500;-59
2021/07/01 03:17:16;;;;;;;111.47;106.00;;;;;;;21.30;72.48;93210.22;5111455;28;20023;-59
2021/07/01 03:19:42;;;;;;;116.40;110.50;;;;;;;21.28;71.82;93203.75;5111826;28;20115;-59
2021/07/01 03:22:07;;;;;;;116.43;110.63;;;;;;;21.22;71.39;93200.66;5111495;28;20416;-58
2021/07/01 03:24:33;;;;;;;109.28;104.03;;;;;;;21.13;71.46;93205.88;5110586;28;20492;-59
2021/07/01 03:27:01;;;;;;;117.30;111.03;;;;;;;21.14;71.73;93203.75;5111631;28;20028;-59
2021/07/01 03:29:27;;;;;;;116.40;110.28;;;;;;;21.13;71.44;93203.06;5110916;28;20523;-58
2021/07/01 03:31:53;;;;;;;113.93;108.25;;;;;;;20.90;71.76;93196.88;5111497;28;20036;-57
2021/07/01 03:34:18;;;;;;;105.03;98.75;;;;;;;20.82;72.87;93185.97;5110817;28;20023;-59
2021/07/01 03:36:44;;;;;;;110.47;105.10;;;;;;;20.96;72.41;93197.22;5110670;28;20118;-59
2021/07/01 03:39:10;;;;;;;99.97;94.53;;;;;;;20.87;73.28;93198.88;5090878;28;20028;-56
2021/07/01 03:41:35;;;;;;;101.80;96.50;;;;;;;20.77;74.62;93203.94;5090639;28;20023;-55
2021/07/01 03:44:01;;;;;;;97.78;92.80;;;;;;;20.81;74.42;93201.34;5090254;28;20461;-58
2021/07/01 03:46:26;;;;;;;100.03;94.30;;;;;;;20.86;74.17;93211.44;5090079;28;20466;-59
2021/07/01 03:48:51;;;;;;;105.75;100.35;;;;;;;20.90;73.31;93200.41;5092489;28;20027;-58
2021/07/01 03:51:17;;;;;;;108.07;101.40;;;;;;;20.98;73.26;93209.28;5104740;28;20447;-58
2021/07/01 03:53:42;;;;;;;108.28;102.15;;;;;;;21.00;72.94;93214.25;5089433;28;20051;-57
2021/07/01 03:56:10;;;;;;;113.82;107.78;;;;;;;21.02;72.59;93212.28;5089740;28;20032;-59
2021/07/01 03:58:35;;;;;;;113.53;107.85;;;;;;;21.02;72.67;93214.34;5090112;28;20024;-60
2021/07/01 04:01:01;;;;;;;99.47;94.10;;;;;;;21.01;73.55;93210.81;5090497;28;20032;-60
2021/07/01 04:03:26;;;;;;;103.97;97.97;;;;;;;21.08;73.54;93207.00;5098810;28;20454;-59
2021/07/01 04:05:51;;;;;;;103.50;97.97;;;;;;;21.08;73.58;93214.69;5092870;28;20640;-59
2021/07/01 04:08:17;;;;;;;100.65;95.07;;;;;;;21.10;74.06;93209.19;5088933;28;20016;-59
2021/07/01 04:10:43;;;;;;;101.72;96.40;;;;;;;21.06;74.44;93203.34;5089439;28;20032;-59
2021/07/01 04:13:08;;;;;;;99.82;94.40;;;;;;;21.15;74.34;93210.84;5107966;28;20065;-60
2021/07/01 04:15:33;;;;;;;102.65;97.07;;;;;;;21.20;74.04;93211.78;5108184;28;20031;-60
2021/07/01 04:17:59;;;;;;;100.35;95.10;;;;;;;21.19;73.84;93211.06;5108346;28;20030;-60
2021/07/01 04:20:24;;;;;;;113.10;102.82;;;;;;;21.22;73.69;93218.25;5106380;28;20039;-60
2021/07/01 04:22:50;;;;;;;105.07;98.40;;;;;;;21.30;73.79;93212.28;5108231;28;20105;-60
2021/07/01 04:25:15;;;;;;;104.63;98.47;;;;;;;21.31;73.76;93214.47;5108485;28;20027;-60
2021/07/01 04:27:41;;;;;;;105.28;99.40;;;;;;;21.36;73.52;93212.59;5109388;28;20047;-60
2021/07/01 04:30:07;;;;;;;104.32;98.40;;;;;;;21.37;73.61;93208.44;5110155;28;20027;-60
2021/07/01 04:32:32;;;;;;;104.13;97.93;;;;;;;21.40;74.24;93213.53;5110217;28;20072;-60
2021/07/01 04:34:57;;;;;;;96.65;91.00;;;;;;;21.46;74.33;93210.31;5109764;28;20028;-60
2021/07/01 04:37:23;;;;;;;102.95;96.82;;;;;;;21.52;74.31;93214.16;5110116;28;20039;-51
2021/07/01 04:39:49;;;;;;;100.55;95.00;;;;;;;21.53;74.76;93218.41;5110315;28;20031;-55
2021/07/01 04:42:14;;;;;;;102.32;97.00;;;;;;;21.57;74.67;93206.66;5110277;28;20030;-57
2021/07/01 04:44:40;;;;;;;100.88;95.43;;;;;;;21.59;75.19;93203.94;5110126;28;20024;-58
2021/07/01 04:47:05;;;;;;;107.65;96.38;;;;;;;21.74;75.19;93201.16;5110061;28;20605;-57
2021/07/01 04:49:31;;;;;;;96.82;90.22;;;;;;;21.76;75.29;93201.28;5101688;28;20028;-57
2021/07/01 04:51:56;;;;;;;97.65;91.60;;;;;;;21.84;74.92;93195.34;5100361;28;20034;-56
2021/07/01 04:54:21;;;;;;;94.60;89.38;;;;;;;21.80;75.77;93201.50;5100741;28;20509;-53
2021/07/01 04:56:48;;;;;;;102.72;97.03;;;;;;;21.78;75.02;93195.78;5109980;28;20051;-54
2021/07/01 04:59:19;;;;;;;98.68;93.15;;;;;;;21.71;75.25;93194.00;5109711;28;20031;-57
2021/07/01 05:01:44;;;;;;;105.15;98.97;;;;;;;21.76;75.77;93192.88;5102238;28;20031;-53
2021/07/01 05:04:12;;;;;;;94.63;89.45;;;;;;;21.83;75.66;93191.06;5093999;28;20027;-55
2021/07/01 05:06:39;;;;;;;94.38;88.97;;;;;;;21.85;76.39;93196.81;5110124;28;20047;-56
2021/07/01 05:09:05;;;;;;;97.72;92.53;;;;;;;21.87;76.19;93192.00;5108897;28;20449;-55
2021/07/01 05:11:31;;;;;;;97.30;91.90;;;;;;;21.85;76.90;93185.56;5107688;28;20024;-56
2021/07/01 05:13:57;;;;;;;100.65;95.07;;;;;;;21.92;77.30;93189.41;5108124;28;20034;-56
2021/07/01 05:16:23;;;;;;;98.05;92.30;;;;;;;21.98;77.21;93187.63;5108271;28;20079;-57
2021/07/01 05:18:48;;;;;;;95.70;89.72;;;;;;;22.15;76.68;93184.19;5108091;28;20102;-57
2021/07/01 05:21:14;;;;;;;87.93;82.53;;;;;;;22.28;76.03;93174.97;5108284;28;20113;-57
2021/07/01 05:23:39;;;;;;;85.30;80.03;;;;;;;22.43;76.35;93179.91;5107968;28;20547;-58
2021/07/01 05:26:05;;;;;;;82.88;77.85;;;;;;;22.53;75.91;93179.63;5109598;28;20034;-57
2021/07/01 05:28:30;;;;;;;89.50;84.63;;;;;;;22.62;75.22;93178.66;5109865;28;20056;-58
2021/07/01 05:30:56;;;;;;;160.57;149.25;;;;;;;22.72;74.37;93181.91;5105833;28;20713;-58
2021/07/01 05:33:21;;;;;;;90.82;85.75;;;;;;;22.84;73.92;93181.72;5099459;28;20024;-58
2021/07/01 05:35:46;;;;;;;89.70;84.82;;;;;;;22.95;74.29;93180.81;5109721;28;20031;-57
2021/07/01 05:38:12;;;;;;;90.90;85.50;;;;;;;23.00;74.36;93174.72;5109735;28;20409;-58
2021/07/01 05:40:37;;;;;;;85.80;80.93;;;;;;;23.04;74.55;93177.72;5109646;28;20464;-57
2021/07/01 05:43:03;;;;;;;86.55;81.40;;;;;;;23.16;74.81;93178.25;5109755;28;20481;-58
2021/07/01 05:45:29;;;;;;;82.20;77.30;;;;;;;23.28;74.59;93184.38;5107993;28;20462;-57
2021/07/01 05:47:55;;;;;;;55.20;51.55;;;;;;;23.34;72.83;93193.16;5112378;28;20394;-58
2021/07/01 05:50:20;;;;;;;50.60;46.92;;;;;;;23.40;72.67;93183.47;5098291;28;20052;-58
2021/07/01 05:52:49;;;;;;;43.08;39.75;;;;;;;23.53;71.53;93191.81;5110029;28;20031;-58
2021/07/01 05:55:15;;;;;;;42.10;38.30;;;;;;;23.61;71.82;93189.31;5113042;28;20034;-57
2021/07/01 05:57:41;;;;;;;36.03;33.08;;;;;;;23.70;71.20;93190.38;5111761;28;20031;-58
2021/07/01 06:00:09;;;;;;;54.15;50.35;;;;;;;23.72;72.23;93188.38;5109959;28;20027;-57
2021/07/01 06:02:35;;;;;;;41.47;38.38;;;;;;;23.75;72.92;93187.09;5092698;28;20070;-57
2021/07/01 06:05:00;;;;;;;34.08;31.10;;;;;;;23.75;71.43;93175.09;5092596;28;20451;-57
2021/07/01 06:07:26;;;;;;;46.72;43.30;;;;;;;23.84;72.45;93186.06;5092347;28;20023;-57
2021/07/01 06:09:54;;;;;;;33.97;31.35;;;;;;;23.99;70.78;93184.53;5091419;28;20020;-58
2021/07/01 06:12:22;;;;;;;42.45;39.05;;;;;;;23.99;72.25;93184.53;5105625;28;20046;-57
2021/07/01 06:14:49;;;;;;;32.35;29.55;;;;;;;24.01;71.67;93182.53;5112105;28;20015;-57
2021/07/01 06:17:17;;;;;;;38.53;35.50;;;;;;;24.02;72.22;93175.50;5111456;28;20024;-58
2021/07/01 06:19:46;;;;;;;36.30;33.38;;;;;;;24.10;71.48;93178.66;5112836;28;20035;-58
2021/07/01 06:22:12;;;;;;;36.97;33.85;;;;;;;24.18;72.22;93180.38;5112798;28;20049;-57
2021/07/01 06:24:37;;;;;;;36.10;30.27;;;;;;;24.25;71.84;93173.59;5105033;27;20579;-58
2021/07/01 06:27:04;;;;;;;32.40;29.35;;;;;;;24.30;71.35;93178.75;5107951;28;20023;-58
2021/07/01 06:29:30;;;;;;;31.88;29.08;;;;;;;24.44;71.16;93178.56;5105535;28;20405;-58
2021/07/01 06:31:55;;;;;;;32.08;29.17;;;;;;;24.47;70.00;93163.19;5104777;28;20023;-58
2021/07/01 06:34:21;;;;;;;29.60;26.92;;;;;;;24.68;69.18;93171.75;5092207;28;20665;-57
2021/07/01 06:36:48;;;;;;;28.02;25.73;;;;;;;24.77;68.13;93175.63;5091981;28;20497;-58
2021/07/01 06:39:13;;;;;;;28.20;26.02;;;;;;;24.87;67.59;93169.63;5092229;28;20134;-59
2021/07/01 06:41:44;;;;;;;27.25;24.95;;;;;;;24.93;67.20;93173.38;5108219;28;20149;-59
2021/07/01 06:44:12;;;;;;;25.63;23.45;;;;;;;24.90;67.09;93169.06;5090632;28;20028;-59
2021/07/01 06:46:38;;;;;;;23.05;21.00;;;;;;;24.95;66.89;93169.94;5092052;28;20412;-58
2021/07/01 06:49:04;;;;;;;24.65;22.35;;;;;;;25.01;66.09;93168.06;5094633;28;20019;-57
2021/07/01 06:51:38;;;;;;;26.00;22.42;;;;;;;25.16;66.53;93170.00;5104146;28;20024;-57
2021/07/01 06:54:04;;;;;;;27.08;24.50;;;;;;;25.28;66.46;93173.25;5091446;28;20123;-58
2021/07/01 06:56:38;;;;;;;24.73;22.52;;;;;;;25.34;66.52;93169.91;5090768;28;20030;-58
2021/07/01 06:59:05;;;;;;;26.50;24.13;;;;;;;25.38;67.13;93173.59;5091475;28;20028;-58
2021/07/01 07:01:30;;;;;;;23.23;20.90;;;;;;;25.33;65.93;93160.72;5099894;28;20475;-57
2021/07/01 07:03:56;;;;;;;22.08;20.20;;;;;;;25.46;66.41;93167.53;5110592;28;20114;-58
2021/07/01 07:06:21;;;;;;;22.40;19.20;;;;;;;25.55;65.06;93155.81;5110966;28;20034;-56
2021/07/01 07:08:47;;;;;;;19.55;16.88;;;;;;;25.69;63.78;93160.50;5110489;28;20481;-57
2021/07/01 07:11:12;;;;;;;20.80;16.13;;;;;;;25.68;63.55;93167.56;5102191;28;20027;-57
2021/07/01 07:13:38;;;;;;;19.00;15.30;;;;;;;25.87;63.89;93161.13;5088752;28;20034;-57
2021/07/01 07:16:04;;;;;;;19.67;14.65;;;;;;;25.83;62.98;93156.06;5088649;28;20032;-58
2021/07/01 07:18:34;;;;;;;18.63;12.88;;;;;;;26.00;60.24;93158.03;5099739;28;20042;-58
2021/07/01 07:21:04;;;;;;;15.98;13.63;;;;;;;26.08;62.51;93157.56;5109491;28;20096;-55
2021/07/01 07:23:33;;;;;;;16.08;12.55;;;;;;;26.17;60.88;93154.38;5099786;28;20032;-58
2021/07/01 07:26:07;;;;;;;18.73;11.45;;;;;;;26.37;59.01;93154.28;5091919;28;20026;-58
2021/07/01 07:28:33;;;;;;;15.88;10.48;;;;;;;26.54;57.48;93150.53;5109378;27;20104;-58
2021/07/01 07:30:59;;;;;;;20.30;11.02;;;;;;;26.83;56.84;93146.47;5107651;28;20773;-58
2021/07/01 07:33:27;;;;;;;16.02;9.70;;;;;;;27.06;54.81;93140.03;5108262;28;20116;-59
2021/07/01 07:35:54;;;;;;;16.35;9.68;;;;;;;27.26;55.54;93134.94;5109329;28;20020;-58
2021/07/01 07:38:20;;;;;;;21.40;10.10;;;;;;;27.61;52.71;93142.28;5108857;28;20070;-59
2021/07/01 07:40:49;;;;;;;16.15;9.95;;;;;;;27.91;52.62;93134.53;5109221;28;20094;-58
2021/07/01 07:43:16;;;;;;;20.25;9.45;;;;;;;28.30;49.68;93127.66;5109112;28;20027;-59
2021/07/01 07:45:42;;;;;;;12.23;9.38;;;;;;;28.62;48.63;93124.84;5098453;28;20024;-59
2021/07/01 07:48:07;;;;;;;16.55;9.35;;;;;;;28.93;51.24;93132.63;5088583;28;20149;-59
2021/07/01 07:50:38;;;;;;;18.75;8.45;;;;;;;29.23;46.81;93136.13;5108559;28;20034;-59
2021/07/01 07:53:05;;;;;;;18.85;7.75;;;;;;;29.56;46.15;93135.31;5087987;28;20076;-59
2021/07/01 07:55:30;;;;;;;15.93;7.55;;;;;;;29.81;44.83;93136.50;5086762;28;20535;-59
2021/07/01 07:57:59;;;;;;;16.77;7.32;;;;;;;30.10;43.90;93138.44;5088296;28;20027;-59
2021/07/01 08:00:27;;;;;;;31.85;8.30;;;;;;;30.27;42.26;93128.00;5088213;28;20023;-59
2021/07/01 08:02:55;;;;;;;16.33;7.00;;;;;;;30.45;39.52;93125.47;5088152;28;20594;-59
2021/07/01 08:05:23;;;;;;;18.73;6.73;;;;;;;30.61;37.97;93131.41;5087911;28;20028;-60
2021/07/01 08:07:50;;;;;;;14.80;6.25;;;;;;;30.81;37.43;93128.09;5088198;28;20093;-59
2021/07/01 08:10:21;;;;;;;18.55;5.53;;;;;;;31.14;34.34;93132.84;5087665;28;20102;-59
2021/07/01 08:12:50;;;;;;;19.90;5.60;;;;;;;31.30;32.71;93130.19;5106568;28;20024;-59
2021/07/01 08:15:20;;;;;;;23.00;5.20;;;;;;;31.59;32.80;93120.56;5108147;28;20012;-59
2021/07/01 08:17:52;;;;;;;21.65;5.80;;;;;;;31.84;34.69;93124.34;5108131;28;20028;-59
2021/07/01 08:20:19;;;;;;;18.00;6.10;;;;;;;32.01;32.57;93120.28;5108262;28;20028;-59
2021/07/01 08:22:46;;;;;;;16.27;6.20;;;;;;;32.26;32.46;93115.47;5107933;28;20794;-59
2021/07/01 08:25:13;;;;;;;22.23;5.85;;;;;;;32.43;33.14;93117.75;5108380;28;20107;-59
2021/07/01 08:27:40;;;;;;;21.00;5.32;;;;;;;32.71;33.47;93111.53;5108033;28;20035;-59
2021/07/01 08:30:07;;;;;;;18.92;6.47;;;;;;;32.75;31.75;93109.41;5108277;28;20028;-59
2021/07/01 08:32:33;;;;;;;17.98;5.55;;;;;;;32.90;30.92;93113.78;5093154;28;20531;-60
2021/07/01 08:34:59;;;;;;;14.95;5.13;;;;;;;32.92;29.81;93112.38;5103564;28;20024;-59
2021/07/01 08:37:26;;;;;;;21.75;5.63;;;;;;;32.77;31.42;93095.13;5106531;28;20048;-59
2021/07/01 08:39:53;;;;;;;20.45;4.95;;;;;;;33.07;29.06;93114.59;5107893;28;20420;-59
2021/07/01 08:42:21;;;;;;;18.25;5.72;;;;;;;33.10;28.88;93098.88;5102860;28;20027;-60
2021/07/01 08:44:55;;;;;;;17.25;5.68;;;;;;;33.38;29.09;93107.56;5094086;28;20731;-60
2021/07/01 08:47:21;;;;;;;13.25;4.60;;;;;;;33.63;28.71;93111.25;5094034;28;20083;-59
2021/07/01 08:49:50;;;;;;;22.25;5.40;;;;;;;33.84;26.02;93109.16;5095060;28;20035;-58
2021/07/01 08:52:17;;;;;;;24.63;5.25;;;;;;;34.18;26.08;93106.34;5096937;28;20024;-59
2021/07/01 08:54:43;;;;;;;25.50;4.60;;;;;;;34.49;26.28;93104.19;5093568;28;20039;-59
2021/07/01 08:57:13;;;;;;;33.75;5.10;;;;;;;34.64;25.61;93103.47;5097866;28;20019;-58
2021/07/01 08:59:54;;;;;;;16.33;5.03;;;;;;;34.92;26.07;93102.69;5097143;28;20032;-59
2021/07/01 09:02:23;;;;;;;20.98;4.60;;;;;;;35.22;23.61;93102.63;5097198;28;20047;-59
2021/07/01 09:04:52;;;;;;;16.38;5.03;;;;;;;35.28;24.21;93096.84;5098590;28;20536;-60
2021/07/01 09:07:25;;;;;;;14.52;4.78;;;;;;;35.22;25.90;93101.91;5106450;28;20039;-60
2021/07/01 09:10:02;;;;;;;15.73;4.88;;;;;;;35.40;25.52;93099.69;5107994;28;20027;-60
2021/07/01 09:12:28;;;;;;;26.67;4.50;;;;;;;35.57;24.20;93088.84;5100502;28;20024;-60
2021/07/01 09:14:57;;;;;;;19.23;4.25;;;;;;;35.72;26.10;93079.44;5096317;28;20020;-60
2021/07/01 09:17:28;;;;;;;14.73;4.55;;;;;;;35.77;26.54;93095.22;5095296;28;20397;-60
2021/07/01 09:19:55;;;;;;;14.50;4.55;;;;;;;35.86;25.13;93093.00;5096295;28;20050;-60
2021/07/01 09:22:22;;;;;;;14.10;4.45;;;;;;;35.98;24.09;93095.09;5101045;28;20783;-60
2021/07/01 09:24:49;;;;;;;16.00;3.63;;;;;;;36.29;22.83;93085.53;5099418;28;20016;-59
2021/07/01 09:27:15;;;;;;;16.70;4.37;;;;;;;36.42;23.49;93084.00;5100177;28;20114;-60
2021/07/01 09:29:42;;;;;;;14.18;4.40;;;;;;;36.41;23.87;93091.16;5101280;28;20165;-60
2021/07/01 09:32:09;;;;;;;14.25;4.10;;;;;;;36.67;24.49;93081.59;5099555;28;20032;-60
2021/07/01 09:34:35;;;;;;;12.60;3.88;;;;;;;36.79;23.52;93081.50;5100092;28;20375;-60
2021/07/01 09:37:04;;;;;;;17.85;4.47;;;;;;;37.00;21.40;93079.13;5098948;28;20122;-61
2021/07/01 09:39:32;;;;;;;15.95;4.22;;;;;;;37.13;21.86;93081.13;5099770;28;20012;-60
2021/07/01 09:42:01;;;;;;;12.70;4.90;;;;;;;37.20;21.36;93079.63;5099766;28;20039;-59
2021/07/01 09:44:27;;;;;;;16.20;4.20;;;;;;;37.24;22.55;93082.44;5100016;28;20030;-60
2021/07/01 09:46:57;;;;;;;15.70;4.32;;;;;;;37.47;21.48;93088.66;5097782;28;20062;-60
2021/07/01 09:49:29;;;;;;;10.20;3.55;;;;;;;37.44;21.51;93077.91;5100026;28;20030;-60
2021/07/01 09:51:56;;;;;;;15.43;4.28;;;;;;;37.26;23.31;93081.69;5099635;28;20034;-60
2021/07/01 09:54:23;;;;;;;13.88;4.15;;;;;;;37.21;22.64;93075.28;5099419;28;20126;-60
2021/07/01 09:56:52;;;;;;;18.63;4.20;;;;;;;37.09;24.53;93072.56;5105190;28;20032;-60
2021/07/01 09:59:23;;;;;;;14.15;4.32;;;;;;;37.35;21.98;93071.53;5101403;28;20442;-60
2021/07/01 10:01:49;;;;;;;16.08;4.03;;;;;;;37.12;20.81;93068.19;5098404;28;20425;-59
2021/07/01 10:04:14;;;;;;;16.35;4.97;;;;;;;37.33;22.78;93073.69;5101293;28;20023;-59
2021/07/01 10:06:40;;;;;;;19.55;5.60;;;;;;;37.31;22.32;93062.22;5100744;28;20016;-60
2021/07/01 10:09:07;;;;;;;20.92;4.85;;;;;;;37.32;23.01;93055.00;5097128;28;20016;-59
2021/07/01 10:11:43;;;;;;;18.08;5.00;;;;;;;37.23;22.32;93057.28;5099861;28;20023;-60
2021/07/01 10:14:11;;;;;;;19.75;5.07;;;;;;;37.14;23.01;93053.06;5098771;28;20016;-60
2021/07/01 10:16:36;;;;;;;16.50;5.17;;;;;;;37.08;23.37;93048.09;5098782;28;20015;-59
2021/07/01 10:19:04;;;;;;;13.93;4.80;;;;;;;37.06;22.32;93050.25;5097565;28;20106;-59
2021/07/01 10:21:31;;;;;;;23.73;5.05;;;;;;;37.01;24.82;93046.75;5098073;28;20430;-59
2021/07/01 10:24:12;;;;;;;17.80;5.18;;;;;;;37.08;23.72;93045.19;5100481;28;20039;-58
2021/07/01 10:26:44;;;;;;;31.38;6.88;;;;;;;37.01;24.28;93046.03;5099527;28;20039;-60
2021/07/01 10:29:10;;;;;;;15.32;5.55;;;;;;;37.18;24.01;93035.75;5098495;28;20019;-60
2021/07/01 10:31:55;;;;;;;18.90;5.43;;;;;;;37.22;23.70;93035.69;5099428;28;20105;-60
2021/07/01 10:34:22;;;;;;;14.73;5.07;;;;;;;37.33;23.62;93016.81;5100023;28;20042;-59
2021/07/01 10:37:26;;;;;;;11.80;4.57;;;;;;;37.50;24.46;93020.94;5097347;28;20337;-60
2021/07/01 10:39:53;;;;;;;14.65;5.00;;;;;;;37.82;23.01;93016.88;5040874;28;20028;-59
2021/07/01 10:42:19;;;;;;;14.25;4.95;;;;;;;38.08;24.39;93013.59;5088148;27;20122;-60
2021/07/01 10:44:45;;;;;;;13.13;4.72;;;;;;;37.86;22.52;93011.78;5099052;28;20489;-60
2021/07/01 10:47:26;;;;;;;15.43;5.25;;;;;;;37.99;23.13;93012.28;5101282;28;20024;-59
2021/07/01 10:49:52;;;;;;;14.15;4.45;;;;;;;37.60;21.98;93005.69;5095500;28;20024;-60
2021/07/01 10:52:18;;;;;;;18.33;5.30;;;;;;;37.68;23.68;93000.50;5102390;28;20016;-59
2021/07/01 10:55:05;;;;;;;18.95;4.75;;;;;;;37.84;23.15;93002.44;5095544;28;20473;-59
2021/07/01 10:57:30;;;;;;;19.10;5.30;;;;;;;37.89;21.82;92992.28;5094896;28;20512;-59
2021/07/01 10:59:57;;;;;;;20.60;4.78;;;;;;;38.00;23.52;92993.56;5100254;28;20026;-59
2021/07/01 11:02:30;;;;;;;11.02;4.20;;;;;;;38.07;23.19;92994.88;5103082;28;20096;-60
2021/07/01 11:05:04;;;;;;;18.48;5.85;;;;;;;38.21;22.26;92985.25;5101482;28;20520;-58
2021/07/01 11:07:41;;;;;;;20.98;5.15;;;;;;;38.21;22.26;92985.97;5101892;28;20476;-58
2021/07/01 11:10:06;;;;;;;19.90;4.85;;;;;;;38.42;22.50;92975.53;5102492;28;20020;-59
2021/07/01 11:12:44;;;;;;;24.00;4.55;;;;;;;38.56;21.65;92981.06;5098597;28;20043;-60
2021/07/01 11:15:09;;;;;;;22.55;5.00;;;;;;;38.46;22.48;92981.25;5096774;28;20016;-58
2021/07/01 11:17:37;;;;;;;18.42;4.75;;;;;;;38.48;22.03;92983.38;5103786;28;20156;-58
2021/07/01 11:20:19;;;;;;;22.02;5.07;;;;;;;38.17;20.61;92968.03;5099692;28;20142;-59